sensor_id;sensor_type;location;lat;lon;timestamp;P1;durP1;ratioP1;P2;durP2;ratioP2
64885;SDS011;51514;52.206;5.114;2023-04-24T00:00:30;3.20;;;1.30;;
64885;SDS011;51514;52.206;5.114;2023-04-24T00:02:56;3.05;;;1.63;;
64885;SDS011;51514;52.206;5.114;2023-04-24T00:05:22;2.05;;;1.50;;
64885;SDS011;51514;52.206;5.114;2023-04-24T00:07:48;2.88;;;1.55;;
64885;SDS011;51514;52.206;5.114;2023-04-24T00:10:17;2.13;;;1.75;;
64885;SDS011;51514;52.206;5.114;2023-04-24T00:12:43;3.17;;;2.00;;
64885;SDS011;51514;52.206;5.114;2023-04-24T00:15:08;4.85;;;2.50;;
64885;SDS011;51514;52.206;5.114;2023-04-24T00:17:34;3.60;;;2.42;;
64885;SDS011;51514;52.206;5.114;2023-04-24T00:19:59;2.03;;;1.70;;
64885;SDS011;51514;52.206;5.114;2023-04-24T00:22:25;1.30;;;1.20;;
64885;SDS011;51514;52.206;5.114;2023-04-24T00:24:51;1.42;;;1.33;;
64885;SDS011;51514;52.206;5.114;2023-04-24T00:27:17;1.98;;;1.40;;
64885;SDS011;51514;52.206;5.114;2023-04-24T00:29:42;2.83;;;1.90;;
64885;SDS011;51514;52.206;5.114;2023-04-24T00:32:07;4.60;;;2.00;;
64885;SDS011;51514;52.206;5.114;2023-04-24T00:34:33;5.03;;;2.38;;
64885;SDS011;51514;52.206;5.114;2023-04-24T00:36:58;5.35;;;2.60;;
64885;SDS011;51514;52.206;5.114;2023-04-24T00:39:23;3.75;;;2.35;;
64885;SDS011;51514;52.206;5.114;2023-04-24T00:41:49;5.30;;;3.08;;
64885;SDS011;51514;52.206;5.114;2023-04-24T00:44:15;6.53;;;2.92;;
64885;SDS011;51514;52.206;5.114;2023-04-24T00:46:41;5.20;;;2.78;;
64885;SDS011;51514;52.206;5.114;2023-04-24T00:49:07;4.60;;;2.80;;
64885;SDS011;51514;52.206;5.114;2023-04-24T00:51:32;5.15;;;3.03;;
64885;SDS011;51514;52.206;5.114;2023-04-24T00:53:59;3.17;;;2.45;;
64885;SDS011;51514;52.206;5.114;2023-04-24T00:56:25;3.92;;;2.40;;
64885;SDS011;51514;52.206;5.114;2023-04-24T00:58:50;3.47;;;2.53;;
64885;SDS011;51514;52.206;5.114;2023-04-24T01:01:16;4.53;;;1.98;;
64885;SDS011;51514;52.206;5.114;2023-04-24T01:03:43;4.10;;;1.80;;
64885;SDS011;51514;52.206;5.114;2023-04-24T01:06:09;3.15;;;2.08;;
64885;SDS011;51514;52.206;5.114;2023-04-24T01:08:35;4.20;;;2.20;;
64885;SDS011;51514;52.206;5.114;2023-04-24T01:11:01;3.22;;;1.67;;
64885;SDS011;51514;52.206;5.114;2023-04-24T01:13:29;3.70;;;2.13;;
64885;SDS011;51514;52.206;5.114;2023-04-24T01:15:55;1.92;;;1.75;;
64885;SDS011;51514;52.206;5.114;2023-04-24T01:18:20;2.42;;;1.77;;
64885;SDS011;51514;52.206;5.114;2023-04-24T01:20:46;3.22;;;2.05;;
64885;SDS011;51514;52.206;5.114;2023-04-24T01:23:13;2.67;;;2.00;;
64885;SDS011;51514;52.206;5.114;2023-04-24T01:25:38;2.35;;;1.92;;
64885;SDS011;51514;52.206;5.114;2023-04-24T01:28:04;3.53;;;2.25;;
64885;SDS011;51514;52.206;5.114;2023-04-24T01:30:29;3.10;;;2.28;;
64885;SDS011;51514;52.206;5.114;2023-04-24T01:32:55;5.07;;;2.42;;
64885;SDS011;51514;52.206;5.114;2023-04-24T01:35:21;4.55;;;2.88;;
64885;SDS011;51514;52.206;5.114;2023-04-24T01:37:46;3.17;;;2.05;;
64885;SDS011;51514;52.206;5.114;2023-04-24T01:40:12;4.30;;;2.45;;
64885;SDS011;51514;52.206;5.114;2023-04-24T01:42:37;4.68;;;2.35;;
64885;SDS011;51514;52.206;5.114;2023-04-24T01:45:03;2.55;;;2.20;;
64885;SDS011;51514;52.206;5.114;2023-04-24T01:47:30;4.85;;;2.47;;
64885;SDS011;51514;52.206;5.114;2023-04-24T01:49:56;2.88;;;2.10;;
64885;SDS011;51514;52.206;5.114;2023-04-24T01:52:22;5.90;;;1.90;;
64885;SDS011;51514;52.206;5.114;2023-04-24T01:54:47;5.50;;;3.00;;
64885;SDS011;51514;52.206;5.114;2023-04-24T01:57:13;5.22;;;1.90;;
64885;SDS011;51514;52.206;5.114;2023-04-24T01:59:39;2.88;;;1.75;;
64885;SDS011;51514;52.206;5.114;2023-04-24T02:02:05;4.43;;;2.42;;
64885;SDS011;51514;52.206;5.114;2023-04-24T02:04:30;5.38;;;2.08;;
64885;SDS011;51514;52.206;5.114;2023-04-24T02:06:56;5.15;;;2.40;;
64885;SDS011;51514;52.206;5.114;2023-04-24T02:09:21;3.92;;;1.90;;
64885;SDS011;51514;52.206;5.114;2023-04-24T02:11:46;2.38;;;1.85;;
64885;SDS011;51514;52.206;5.114;2023-04-24T02:14:12;4.32;;;2.50;;
64885;SDS011;51514;52.206;5.114;2023-04-24T02:16:37;2.03;;;1.60;;
64885;SDS011;51514;52.206;5.114;2023-04-24T02:19:04;4.88;;;1.77;;
64885;SDS011;51514;52.206;5.114;2023-04-24T02:21:29;4.13;;;1.77;;
64885;SDS011;51514;52.206;5.114;2023-04-24T02:23:56;3.22;;;1.85;;
64885;SDS011;51514;52.206;5.114;2023-04-24T02:26:22;5.32;;;2.20;;
64885;SDS011;51514;52.206;5.114;2023-04-24T02:28:47;2.40;;;1.98;;
64885;SDS011;51514;52.206;5.114;2023-04-24T02:31:12;5.18;;;2.40;;
64885;SDS011;51514;52.206;5.114;2023-04-24T02:33:38;5.00;;;2.03;;
64885;SDS011;51514;52.206;5.114;2023-04-24T02:36:03;3.53;;;2.15;;
64885;SDS011;51514;52.206;5.114;2023-04-24T02:38:29;4.50;;;2.10;;
64885;SDS011;51514;52.206;5.114;2023-04-24T02:40:54;3.17;;;2.00;;
64885;SDS011;51514;52.206;5.114;2023-04-24T02:43:20;3.25;;;2.15;;
64885;SDS011;51514;52.206;5.114;2023-04-24T02:45:45;5.28;;;2.13;;
64885;SDS011;51514;52.206;5.114;2023-04-24T02:48:11;4.10;;;2.40;;
64885;SDS011;51514;52.206;5.114;2023-04-24T02:50:36;3.17;;;2.47;;
64885;SDS011;51514;52.206;5.114;2023-04-24T02:53:01;3.22;;;2.20;;
64885;SDS011;51514;52.206;5.114;2023-04-24T02:55:27;4.28;;;2.50;;
64885;SDS011;51514;52.206;5.114;2023-04-24T02:57:52;5.13;;;2.70;;
64885;SDS011;51514;52.206;5.114;2023-04-24T03:00:18;4.18;;;2.50;;
64885;SDS011;51514;52.206;5.114;2023-04-24T03:02:43;3.63;;;2.42;;
64885;SDS011;51514;52.206;5.114;2023-04-24T03:05:09;3.95;;;2.65;;
64885;SDS011;51514;52.206;5.114;2023-04-24T03:07:36;8.48;;;2.83;;
64885;SDS011;51514;52.206;5.114;2023-04-24T03:10:02;4.20;;;2.90;;
64885;SDS011;51514;52.206;5.114;2023-04-24T03:12:28;4.05;;;2.80;;
64885;SDS011;51514;52.206;5.114;2023-04-24T03:14:53;5.75;;;2.78;;
64885;SDS011;51514;52.206;5.114;2023-04-24T03:17:18;4.45;;;3.30;;
64885;SDS011;51514;52.206;5.114;2023-04-24T03:19:44;4.53;;;2.90;;
64885;SDS011;51514;52.206;5.114;2023-04-24T03:22:09;5.20;;;3.30;;
64885;SDS011;51514;52.206;5.114;2023-04-24T03:24:34;5.55;;;3.22;;
64885;SDS011;51514;52.206;5.114;2023-04-24T03:27:00;5.22;;;3.00;;
64885;SDS011;51514;52.206;5.114;2023-04-24T03:29:25;3.92;;;2.95;;
64885;SDS011;51514;52.206;5.114;2023-04-24T03:31:51;5.75;;;2.83;;
64885;SDS011;51514;52.206;5.114;2023-04-24T03:34:16;4.47;;;2.80;;
64885;SDS011;51514;52.206;5.114;2023-04-24T03:36:41;4.68;;;2.78;;
64885;SDS011;51514;52.206;5.114;2023-04-24T03:39:06;5.40;;;2.97;;
64885;SDS011;51514;52.206;5.114;2023-04-24T03:41:32;4.47;;;3.00;;
64885;SDS011;51514;52.206;5.114;2023-04-24T03:43:58;6.82;;;3.17;;
64885;SDS011;51514;52.206;5.114;2023-04-24T03:46:23;5.15;;;2.55;;
64885;SDS011;51514;52.206;5.114;2023-04-24T03:48:49;4.35;;;2.63;;
64885;SDS011;51514;52.206;5.114;2023-04-24T03:51:14;7.05;;;2.65;;
64885;SDS011;51514;52.206;5.114;2023-04-24T03:53:39;3.60;;;2.60;;
64885;SDS011;51514;52.206;5.114;2023-04-24T03:56:05;4.72;;;2.47;;
64885;SDS011;51514;52.206;5.114;2023-04-24T03:58:30;4.05;;;2.45;;
64885;SDS011;51514;52.206;5.114;2023-04-24T04:00:55;3.65;;;2.45;;
64885;SDS011;51514;52.206;5.114;2023-04-24T04:03:23;3.78;;;2.45;;
64885;SDS011;51514;52.206;5.114;2023-04-24T04:05:48;5.75;;;2.90;;
64885;SDS011;51514;52.206;5.114;2023-04-24T04:08:14;5.75;;;2.97;;
64885;SDS011;51514;52.206;5.114;2023-04-24T04:10:39;5.45;;;3.00;;
64885;SDS011;51514;52.206;5.114;2023-04-24T04:13:05;7.10;;;2.97;;
64885;SDS011;51514;52.206;5.114;2023-04-24T04:15:31;5.10;;;2.97;;
64885;SDS011;51514;52.206;5.114;2023-04-24T04:17:57;8.63;;;4.10;;
64885;SDS011;51514;52.206;5.114;2023-04-24T04:20:22;7.55;;;3.15;;
64885;SDS011;51514;52.206;5.114;2023-04-24T04:22:48;5.88;;;3.08;;
64885;SDS011;51514;52.206;5.114;2023-04-24T04:25:13;4.32;;;3.22;;
64885;SDS011;51514;52.206;5.114;2023-04-24T04:27:38;4.80;;;3.38;;
64885;SDS011;51514;52.206;5.114;2023-04-24T04:30:06;4.75;;;3.22;;
64885;SDS011;51514;52.206;5.114;2023-04-24T04:32:33;8.65;;;3.00;;
64885;SDS011;51514;52.206;5.114;2023-04-24T04:34:59;5.38;;;2.80;;
64885;SDS011;51514;52.206;5.114;2023-04-24T04:37:29;5.95;;;2.80;;
64885;SDS011;51514;52.206;5.114;2023-04-24T04:39:55;4.88;;;2.80;;
64885;SDS011;51514;52.206;5.114;2023-04-24T04:42:20;3.25;;;2.22;;
64885;SDS011;51514;52.206;5.114;2023-04-24T04:44:46;5.30;;;2.70;;
64885;SDS011;51514;52.206;5.114;2023-04-24T04:47:11;5.20;;;2.42;;
64885;SDS011;51514;52.206;5.114;2023-04-24T04:49:37;2.75;;;1.98;;
64885;SDS011;51514;52.206;5.114;2023-04-24T04:52:03;6.22;;;2.08;;
64885;SDS011;51514;52.206;5.114;2023-04-24T04:54:29;3.70;;;1.90;;
64885;SDS011;51514;52.206;5.114;2023-04-24T04:56:54;2.83;;;1.70;;
64885;SDS011;51514;52.206;5.114;2023-04-24T04:59:20;6.40;;;2.22;;
64885;SDS011;51514;52.206;5.114;2023-04-24T05:01:45;3.22;;;1.85;;
64885;SDS011;51514;52.206;5.114;2023-04-24T05:04:11;5.80;;;1.90;;
64885;SDS011;51514;52.206;5.114;2023-04-24T05:06:36;6.00;;;1.70;;
64885;SDS011;51514;52.206;5.114;2023-04-24T05:09:02;2.28;;;1.85;;
64885;SDS011;51514;52.206;5.114;2023-04-24T05:11:28;4.18;;;2.08;;
64885;SDS011;51514;52.206;5.114;2023-04-24T05:13:54;3.22;;;2.08;;
64885;SDS011;51514;52.206;5.114;2023-04-24T05:16:20;3.00;;;1.88;;
64885;SDS011;51514;52.206;5.114;2023-04-24T05:18:45;2.55;;;1.60;;
64885;SDS011;51514;52.206;5.114;2023-04-24T05:21:11;1.10;;;1.00;;
64885;SDS011;51514;52.206;5.114;2023-04-24T05:23:36;2.67;;;1.15;;
64885;SDS011;51514;52.206;5.114;2023-04-24T05:26:01;1.52;;;1.10;;
64885;SDS011;51514;52.206;5.114;2023-04-24T05:28:27;3.80;;;1.20;;
64885;SDS011;51514;52.206;5.114;2023-04-24T05:30:55;1.13;;;1.02;;
64885;SDS011;51514;52.206;5.114;2023-04-24T05:33:21;1.70;;;1.00;;
64885;SDS011;51514;52.206;5.114;2023-04-24T05:35:47;3.17;;;1.25;;
64885;SDS011;51514;52.206;5.114;2023-04-24T05:38:13;2.75;;;0.88;;
64885;SDS011;51514;52.206;5.114;2023-04-24T05:40:39;1.52;;;1.08;;
64885;SDS011;51514;52.206;5.114;2023-04-24T05:43:05;2.15;;;1.23;;
64885;SDS011;51514;52.206;5.114;2023-04-24T05:45:30;2.97;;;1.45;;
64885;SDS011;51514;52.206;5.114;2023-04-24T05:47:56;1.75;;;1.10;;
64885;SDS011;51514;52.206;5.114;2023-04-24T05:50:22;2.33;;;1.00;;
64885;SDS011;51514;52.206;5.114;2023-04-24T05:52:47;2.67;;;1.30;;
64885;SDS011;51514;52.206;5.114;2023-04-24T05:55:12;2.72;;;1.67;;
64885;SDS011;51514;52.206;5.114;2023-04-24T05:57:38;5.07;;;1.75;;
64885;SDS011;51514;52.206;5.114;2023-04-24T06:00:04;2.58;;;1.90;;
64885;SDS011;51514;52.206;5.114;2023-04-24T06:02:30;3.38;;;2.08;;
64885;SDS011;51514;52.206;5.114;2023-04-24T06:04:57;5.55;;;2.90;;
64885;SDS011;51514;52.206;5.114;2023-04-24T06:07:24;11.38;;;6.50;;
64885;SDS011;51514;52.206;5.114;2023-04-24T06:09:51;9.43;;;6.15;;
64885;SDS011;51514;52.206;5.114;2023-04-24T06:12:17;8.90;;;6.50;;
64885;SDS011;51514;52.206;5.114;2023-04-24T06:14:42;12.88;;;7.25;;
64885;SDS011;51514;52.206;5.114;2023-04-24T06:17:08;15.98;;;8.55;;
64885;SDS011;51514;52.206;5.114;2023-04-24T06:19:33;14.30;;;9.27;;
64885;SDS011;51514;52.206;5.114;2023-04-24T06:21:59;14.95;;;9.05;;
64885;SDS011;51514;52.206;5.114;2023-04-24T06:24:27;13.43;;;9.10;;
64885;SDS011;51514;52.206;5.114;2023-04-24T06:26:53;16.05;;;10.02;;
64885;SDS011;51514;52.206;5.114;2023-04-24T06:29:19;16.23;;;9.55;;
64885;SDS011;51514;52.206;5.114;2023-04-24T06:31:44;16.88;;;9.73;;
64885;SDS011;51514;52.206;5.114;2023-04-24T06:34:09;22.33;;;11.77;;
64885;SDS011;51514;52.206;5.114;2023-04-24T06:36:35;24.52;;;11.93;;
64885;SDS011;51514;52.206;5.114;2023-04-24T06:39:00;17.48;;;11.00;;
64885;SDS011;51514;52.206;5.114;2023-04-24T06:41:26;18.98;;;11.50;;
64885;SDS011;51514;52.206;5.114;2023-04-24T06:43:53;20.63;;;11.13;;
64885;SDS011;51514;52.206;5.114;2023-04-24T06:46:18;21.70;;;11.00;;
64885;SDS011;51514;52.206;5.114;2023-04-24T06:48:43;17.63;;;11.85;;
64885;SDS011;51514;52.206;5.114;2023-04-24T06:51:09;18.02;;;9.88;;
64885;SDS011;51514;52.206;5.114;2023-04-24T06:53:35;18.42;;;11.23;;
64885;SDS011;51514;52.206;5.114;2023-04-24T06:56:00;16.70;;;9.88;;
64885;SDS011;51514;52.206;5.114;2023-04-24T06:58:25;20.15;;;11.77;;
64885;SDS011;51514;52.206;5.114;2023-04-24T07:00:51;22.20;;;10.23;;
64885;SDS011;51514;52.206;5.114;2023-04-24T07:03:16;15.93;;;9.75;;
64885;SDS011;51514;52.206;5.114;2023-04-24T07:05:41;15.90;;;9.90;;
64885;SDS011;51514;52.206;5.114;2023-04-24T07:08:07;20.55;;;10.55;;
64885;SDS011;51514;52.206;5.114;2023-04-24T07:10:33;15.48;;;9.73;;
64885;SDS011;51514;52.206;5.114;2023-04-24T07:13:00;20.70;;;10.07;;
64885;SDS011;51514;52.206;5.114;2023-04-24T07:15:26;16.88;;;9.45;;
64885;SDS011;51514;52.206;5.114;2023-04-24T07:17:51;17.58;;;9.38;;
64885;SDS011;51514;52.206;5.114;2023-04-24T07:20:17;17.30;;;9.68;;
64885;SDS011;51514;52.206;5.114;2023-04-24T07:22:42;24.30;;;10.60;;
64885;SDS011;51514;52.206;5.114;2023-04-24T07:25:08;21.80;;;9.85;;
64885;SDS011;51514;52.206;5.114;2023-04-24T07:27:34;20.42;;;10.82;;
64885;SDS011;51514;52.206;5.114;2023-04-24T07:30:00;17.83;;;9.57;;
64885;SDS011;51514;52.206;5.114;2023-04-24T07:32:26;23.65;;;9.10;;
64885;SDS011;51514;52.206;5.114;2023-04-24T07:34:51;17.08;;;8.88;;
64885;SDS011;51514;52.206;5.114;2023-04-24T07:37:18;20.83;;;8.95;;
64885;SDS011;51514;52.206;5.114;2023-04-24T07:39:44;23.75;;;8.75;;
64885;SDS011;51514;52.206;5.114;2023-04-24T07:42:09;22.90;;;8.50;;
64885;SDS011;51514;52.206;5.114;2023-04-24T07:44:35;21.77;;;8.45;;
64885;SDS011;51514;52.206;5.114;2023-04-24T07:47:01;22.63;;;8.32;;
64885;SDS011;51514;52.206;5.114;2023-04-24T07:49:26;19.25;;;6.97;;
64885;SDS011;51514;52.206;5.114;2023-04-24T07:51:52;23.40;;;8.50;;
64885;SDS011;51514;52.206;5.114;2023-04-24T07:54:18;22.23;;;6.85;;
64885;SDS011;51514;52.206;5.114;2023-04-24T07:56:43;23.63;;;7.70;;
64885;SDS011;51514;52.206;5.114;2023-04-24T07:59:09;23.38;;;6.30;;
64885;SDS011;51514;52.206;5.114;2023-04-24T08:01:35;21.50;;;5.35;;
64885;SDS011;51514;52.206;5.114;2023-04-24T08:04:01;19.05;;;5.32;;
64885;SDS011;51514;52.206;5.114;2023-04-24T08:06:27;22.70;;;4.80;;
64885;SDS011;51514;52.206;5.114;2023-04-24T08:11:22;18.45;;;6.20;;
64885;SDS011;51514;52.206;5.114;2023-04-24T08:13:47;21.25;;;5.53;;
64885;SDS011;51514;52.206;5.114;2023-04-24T08:16:12;19.20;;;4.90;;
64885;SDS011;51514;52.206;5.114;2023-04-24T08:18:38;13.93;;;4.13;;
64885;SDS011;51514;52.206;5.114;2023-04-24T08:21:03;18.05;;;6.32;;
64885;SDS011;51514;52.206;5.114;2023-04-24T08:23:29;18.70;;;4.50;;
64885;SDS011;51514;52.206;5.114;2023-04-24T08:25:55;17.90;;;4.00;;
64885;SDS011;51514;52.206;5.114;2023-04-24T08:28:21;15.52;;;4.05;;
64885;SDS011;51514;52.206;5.114;2023-04-24T08:30:47;11.90;;;3.85;;
64885;SDS011;51514;52.206;5.114;2023-04-24T08:33:13;12.32;;;4.25;;
64885;SDS011;51514;52.206;5.114;2023-04-24T08:35:39;18.02;;;4.20;;
64885;SDS011;51514;52.206;5.114;2023-04-24T08:38:05;14.32;;;4.43;;
64885;SDS011;51514;52.206;5.114;2023-04-24T08:40:30;11.18;;;4.07;;
64885;SDS011;51514;52.206;5.114;2023-04-24T08:43:00;14.30;;;4.38;;
64885;SDS011;51514;52.206;5.114;2023-04-24T08:45:25;14.40;;;5.63;;
64885;SDS011;51514;52.206;5.114;2023-04-24T08:47:52;11.73;;;4.57;;
64885;SDS011;51514;52.206;5.114;2023-04-24T08:50:18;15.52;;;4.13;;
64885;SDS011;51514;52.206;5.114;2023-04-24T08:52:44;18.60;;;5.60;;
64885;SDS011;51514;52.206;5.114;2023-04-24T08:55:09;13.43;;;3.47;;
64885;SDS011;51514;52.206;5.114;2023-04-24T08:57:35;13.85;;;4.07;;
64885;SDS011;51514;52.206;5.114;2023-04-24T09:00:03;15.63;;;3.55;;
64885;SDS011;51514;52.206;5.114;2023-04-24T09:02:29;15.07;;;4.53;;
64885;SDS011;51514;52.206;5.114;2023-04-24T09:04:56;10.70;;;3.90;;
64885;SDS011;51514;52.206;5.114;2023-04-24T09:07:22;11.32;;;4.18;;
64885;SDS011;51514;52.206;5.114;2023-04-24T09:09:50;16.92;;;4.78;;
64885;SDS011;51514;52.206;5.114;2023-04-24T09:12:17;11.65;;;3.38;;
64885;SDS011;51514;52.206;5.114;2023-04-24T09:14:42;12.60;;;4.35;;
64885;SDS011;51514;52.206;5.114;2023-04-24T09:17:10;10.82;;;3.30;;
64885;SDS011;51514;52.206;5.114;2023-04-24T09:19:36;10.80;;;3.80;;
64885;SDS011;51514;52.206;5.114;2023-04-24T09:22:05;9.60;;;3.75;;
64885;SDS011;51514;52.206;5.114;2023-04-24T09:24:31;9.90;;;4.28;;
64885;SDS011;51514;52.206;5.114;2023-04-24T09:26:57;13.05;;;3.50;;
64885;SDS011;51514;52.206;5.114;2023-04-24T09:29:23;10.85;;;3.45;;
64885;SDS011;51514;52.206;5.114;2023-04-24T09:31:49;11.10;;;3.83;;
64885;SDS011;51514;52.206;5.114;2023-04-24T09:34:19;11.93;;;3.67;;
64885;SDS011;51514;52.206;5.114;2023-04-24T09:36:49;9.35;;;3.28;;
64885;SDS011;51514;52.206;5.114;2023-04-24T09:39:16;11.32;;;3.72;;
64885;SDS011;51514;52.206;5.114;2023-04-24T09:44:15;11.02;;;3.63;;
64885;SDS011;51514;52.206;5.114;2023-04-24T09:46:43;8.77;;;3.28;;
64885;SDS011;51514;52.206;5.114;2023-04-24T09:49:12;17.00;;;3.70;;
64885;SDS011;51514;52.206;5.114;2023-04-24T09:51:39;8.93;;;3.13;;
64885;SDS011;51514;52.206;5.114;2023-04-24T09:54:11;9.65;;;3.22;;
64885;SDS011;51514;52.206;5.114;2023-04-24T09:56:41;9.55;;;3.35;;
64885;SDS011;51514;52.206;5.114;2023-04-24T09:59:09;9.38;;;2.90;;
64885;SDS011;51514;52.206;5.114;2023-04-24T10:01:34;6.72;;;2.60;;
64885;SDS011;51514;52.206;5.114;2023-04-24T10:04:00;7.43;;;2.63;;
64885;SDS011;51514;52.206;5.114;2023-04-24T10:06:35;5.13;;;1.92;;
64885;SDS011;51514;52.206;5.114;2023-04-24T10:09:01;5.50;;;2.03;;
64885;SDS011;51514;52.206;5.114;2023-04-24T10:11:28;8.00;;;2.40;;
64885;SDS011;51514;52.206;5.114;2023-04-24T10:13:55;5.35;;;2.20;;
64885;SDS011;51514;52.206;5.114;2023-04-24T10:16:21;8.95;;;2.42;;
64885;SDS011;51514;52.206;5.114;2023-04-24T10:18:47;7.30;;;2.40;;
64885;SDS011;51514;52.206;5.114;2023-04-24T10:21:14;5.38;;;2.22;;
64885;SDS011;51514;52.206;5.114;2023-04-24T10:23:40;5.95;;;2.60;;
64885;SDS011;51514;52.206;5.114;2023-04-24T10:26:08;11.25;;;3.08;;
64885;SDS011;51514;52.206;5.114;2023-04-24T10:28:35;6.40;;;2.10;;
64885;SDS011;51514;52.206;5.114;2023-04-24T10:31:02;6.93;;;2.13;;
64885;SDS011;51514;52.206;5.114;2023-04-24T10:33:28;5.72;;;2.90;;
64885;SDS011;51514;52.206;5.114;2023-04-24T10:35:55;4.25;;;2.08;;
64885;SDS011;51514;52.206;5.114;2023-04-24T10:38:24;5.65;;;2.60;;
64885;SDS011;51514;52.206;5.114;2023-04-24T10:40:56;7.03;;;2.47;;
64885;SDS011;51514;52.206;5.114;2023-04-24T10:43:31;11.10;;;2.10;;
64885;SDS011;51514;52.206;5.114;2023-04-24T10:46:01;11.98;;;2.22;;
64885;SDS011;51514;52.206;5.114;2023-04-24T10:48:29;12.65;;;3.55;;
64885;SDS011;51514;52.206;5.114;2023-04-24T10:50:55;7.20;;;2.25;;
64885;SDS011;51514;52.206;5.114;2023-04-24T10:53:22;8.35;;;2.55;;
64885;SDS011;51514;52.206;5.114;2023-04-24T10:56:15;11.45;;;3.03;;
64885;SDS011;51514;52.206;5.114;2023-04-24T10:58:40;10.65;;;2.80;;
64885;SDS011;51514;52.206;5.114;2023-04-24T11:01:09;6.03;;;2.33;;
64885;SDS011;51514;52.206;5.114;2023-04-24T11:06:32;6.07;;;2.05;;
64885;SDS011;51514;52.206;5.114;2023-04-24T11:09:02;5.90;;;1.92;;
64885;SDS011;51514;52.206;5.114;2023-04-24T11:11:29;4.50;;;1.50;;
64885;SDS011;51514;52.206;5.114;2023-04-24T11:16:21;3.85;;;1.50;;
64885;SDS011;51514;52.206;5.114;2023-04-24T11:27:12;4.28;;;1.42;;
64885;SDS011;51514;52.206;5.114;2023-04-24T11:40:00;6.28;;;2.13;;
64885;SDS011;51514;52.206;5.114;2023-04-24T11:42:25;5.07;;;1.52;;
64885;SDS011;51514;52.206;5.114;2023-04-24T11:44:54;7.55;;;1.70;;
64885;SDS011;51514;52.206;5.114;2023-04-24T11:47:27;4.22;;;1.75;;
64885;SDS011;51514;52.206;5.114;2023-04-24T11:49:56;6.38;;;3.05;;
64885;SDS011;51514;52.206;5.114;2023-04-24T11:52:21;8.43;;;2.78;;
64885;SDS011;51514;52.206;5.114;2023-04-24T11:54:47;9.18;;;2.67;;
64885;SDS011;51514;52.206;5.114;2023-04-24T11:57:16;6.40;;;1.95;;
64885;SDS011;51514;52.206;5.114;2023-04-24T11:59:44;8.40;;;2.40;;
64885;SDS011;51514;52.206;5.114;2023-04-24T12:02:19;10.20;;;2.05;;
64885;SDS011;51514;52.206;5.114;2023-04-24T12:04:48;7.20;;;2.17;;
64885;SDS011;51514;52.206;5.114;2023-04-24T12:07:13;11.40;;;2.80;;
64885;SDS011;51514;52.206;5.114;2023-04-24T12:09:46;8.18;;;2.00;;
64885;SDS011;51514;52.206;5.114;2023-04-24T12:12:14;7.78;;;3.00;;
64885;SDS011;51514;52.206;5.114;2023-04-24T12:14:44;7.53;;;2.05;;
64885;SDS011;51514;52.206;5.114;2023-04-24T12:17:12;5.55;;;2.70;;
64885;SDS011;51514;52.206;5.114;2023-04-24T12:19:38;8.52;;;2.65;;
64885;SDS011;51514;52.206;5.114;2023-04-24T12:22:10;12.18;;;2.42;;
64885;SDS011;51514;52.206;5.114;2023-04-24T12:24:54;10.40;;;2.80;;
64885;SDS011;51514;52.206;5.114;2023-04-24T12:27:21;11.43;;;3.35;;
64885;SDS011;51514;52.206;5.114;2023-04-24T12:29:56;9.10;;;3.22;;
64885;SDS011;51514;52.206;5.114;2023-04-24T12:32:23;13.40;;;3.70;;
64885;SDS011;51514;52.206;5.114;2023-04-24T12:34:50;11.88;;;3.08;;
64885;SDS011;51514;52.206;5.114;2023-04-24T12:37:16;14.30;;;3.47;;
64885;SDS011;51514;52.206;5.114;2023-04-24T12:39:44;16.30;;;3.63;;
64885;SDS011;51514;52.206;5.114;2023-04-24T12:42:31;12.70;;;3.28;;
64885;SDS011;51514;52.206;5.114;2023-04-24T12:44:57;17.48;;;3.92;;
64885;SDS011;51514;52.206;5.114;2023-04-24T12:47:24;11.38;;;3.20;;
64885;SDS011;51514;52.206;5.114;2023-04-24T12:49:51;10.77;;;3.33;;
64885;SDS011;51514;52.206;5.114;2023-04-24T12:52:17;13.27;;;4.18;;
64885;SDS011;51514;52.206;5.114;2023-04-24T12:54:45;17.88;;;5.82;;
64885;SDS011;51514;52.206;5.114;2023-04-24T12:57:10;15.45;;;4.05;;
64885;SDS011;51514;52.206;5.114;2023-04-24T12:59:36;18.27;;;5.30;;
64885;SDS011;51514;52.206;5.114;2023-04-24T13:02:01;13.23;;;4.60;;
64885;SDS011;51514;52.206;5.114;2023-04-24T13:04:26;19.90;;;4.45;;
64885;SDS011;51514;52.206;5.114;2023-04-24T13:06:52;17.55;;;4.22;;
64885;SDS011;51514;52.206;5.114;2023-04-24T13:09:17;15.90;;;4.28;;
64885;SDS011;51514;52.206;5.114;2023-04-24T13:11:42;21.45;;;4.72;;
64885;SDS011;51514;52.206;5.114;2023-04-24T13:14:08;16.67;;;4.38;;
64885;SDS011;51514;52.206;5.114;2023-04-24T13:16:33;16.48;;;3.65;;
64885;SDS011;51514;52.206;5.114;2023-04-24T13:18:59;11.50;;;3.55;;
64885;SDS011;51514;52.206;5.114;2023-04-24T13:21:24;14.15;;;3.88;;
64885;SDS011;51514;52.206;5.114;2023-04-24T13:23:51;12.13;;;4.22;;
64885;SDS011;51514;52.206;5.114;2023-04-24T13:26:16;12.38;;;4.57;;
64885;SDS011;51514;52.206;5.114;2023-04-24T13:28:42;14.68;;;3.90;;
64885;SDS011;51514;52.206;5.114;2023-04-24T13:31:07;17.10;;;5.80;;
64885;SDS011;51514;52.206;5.114;2023-04-24T13:33:33;16.90;;;5.57;;
64885;SDS011;51514;52.206;5.114;2023-04-24T13:35:58;11.68;;;4.55;;
64885;SDS011;51514;52.206;5.114;2023-04-24T13:38:23;15.57;;;4.90;;
64885;SDS011;51514;52.206;5.114;2023-04-24T13:40:49;12.63;;;4.13;;
64885;SDS011;51514;52.206;5.114;2023-04-24T13:43:14;17.38;;;6.10;;
64885;SDS011;51514;52.206;5.114;2023-04-24T13:45:40;12.95;;;3.97;;
64885;SDS011;51514;52.206;5.114;2023-04-24T13:48:05;14.57;;;4.50;;
64885;SDS011;51514;52.206;5.114;2023-04-24T13:50:31;12.80;;;4.20;;
64885;SDS011;51514;52.206;5.114;2023-04-24T13:52:56;11.82;;;3.83;;
64885;SDS011;51514;52.206;5.114;2023-04-24T13:55:22;15.43;;;4.35;;
64885;SDS011;51514;52.206;5.114;2023-04-24T13:57:47;13.52;;;4.72;;
64885;SDS011;51514;52.206;5.114;2023-04-24T14:00:13;16.95;;;4.65;;
64885;SDS011;51514;52.206;5.114;2023-04-24T14:02:41;13.95;;;4.97;;
64885;SDS011;51514;52.206;5.114;2023-04-24T14:05:06;22.55;;;6.15;;
64885;SDS011;51514;52.206;5.114;2023-04-24T14:07:32;16.85;;;4.50;;
64885;SDS011;51514;52.206;5.114;2023-04-24T14:09:57;19.02;;;4.93;;
64885;SDS011;51514;52.206;5.114;2023-04-24T14:12:23;14.85;;;4.30;;
64885;SDS011;51514;52.206;5.114;2023-04-24T14:14:48;14.65;;;4.68;;
64885;SDS011;51514;52.206;5.114;2023-04-24T14:17:13;14.35;;;4.00;;
64885;SDS011;51514;52.206;5.114;2023-04-24T14:19:39;18.38;;;4.40;;
64885;SDS011;51514;52.206;5.114;2023-04-24T14:22:05;18.15;;;5.32;;
64885;SDS011;51514;52.206;5.114;2023-04-24T14:24:30;12.25;;;4.00;;
64885;SDS011;51514;52.206;5.114;2023-04-24T14:26:56;12.23;;;4.30;;
64885;SDS011;51514;52.206;5.114;2023-04-24T14:29:21;14.52;;;4.60;;
64885;SDS011;51514;52.206;5.114;2023-04-24T14:31:46;20.13;;;4.57;;
64885;SDS011;51514;52.206;5.114;2023-04-24T14:34:13;13.05;;;4.82;;
64885;SDS011;51514;52.206;5.114;2023-04-24T14:36:38;10.63;;;3.80;;
64885;SDS011;51514;52.206;5.114;2023-04-24T14:39:04;10.45;;;4.05;;
64885;SDS011;51514;52.206;5.114;2023-04-24T14:41:31;11.02;;;3.95;;
64885;SDS011;51514;52.206;5.114;2023-04-24T14:44:00;12.68;;;4.55;;
64885;SDS011;51514;52.206;5.114;2023-04-24T14:46:26;15.10;;;4.35;;
64885;SDS011;51514;52.206;5.114;2023-04-24T14:48:52;12.02;;;4.22;;
64885;SDS011;51514;52.206;5.114;2023-04-24T14:51:17;13.52;;;4.13;;
64885;SDS011;51514;52.206;5.114;2023-04-24T14:53:42;15.65;;;4.28;;
64885;SDS011;51514;52.206;5.114;2023-04-24T14:56:08;14.32;;;4.88;;
64885;SDS011;51514;52.206;5.114;2023-04-24T14:58:33;12.52;;;4.93;;
64885;SDS011;51514;52.206;5.114;2023-04-24T15:00:59;15.85;;;4.60;;
64885;SDS011;51514;52.206;5.114;2023-04-24T15:03:25;13.50;;;4.57;;